Airfield :
LOGIN :

Register | Disclaimer

   EN    FR    IT 

 










Legend :    VFR   Marginal VFR   IFR   Intensive IFR   Very Intensive IFR
Visi :
Ceiling :
>= 8 km
>= 3000ft
5 to 8 km
1000 to 3000 ft
1500m to 5 km
500 to 1000 ft
800 to 1500m
200 to 500 ft
< 800m
< 200 ft
Symbols :   Thunderstorms  Fog  Heavy snow  Heavy precipitations  Wind > 20 kt
SIGMETs :     Misc.  Thunderstorms  Icing  Turbulence  Mountain Waves  Volcanic Ashes







- Airport Elevation : 138 ft
- IATA code : RLG


ETNL - Rostock Laage

CURRENT METAR :
  • 211720Z 14006KT 9999 BKN080 12/10 Q1012 BLU

EXPIRED METARs :
  • 211620Z 16006KT 9999 BKN080 12/10 Q1012 BLU
  • 211537Z 14005KT 9999 BKN090 12/10 Q1012 BLU
  • 211520Z 15004KT 9999 BKN090 13/10 Q1013 BLU

TAF TAF ETNL
Valid from the 21 at 17:00 until the 22 at 05:00 UTC


211615Z 2117/2205 16005KT 9999 NSW SCT015 BKN070
BECMG 2117/2119 16007KT 8000 -RA BKN010 BKN030
TEMPO 2119/2124 16010KT 3000 RADZ BKN005 OVC020
BECMG 2200/2202 19010KT 9999 NSW SCT015 BKN030 BY ETGL
No reported NOTAMs for that airfield.



MET'MAP, your aeronautical weather chart ! - Copyright ORBIFLY December 2007 - Disclaimer

ORBIFLY MET'MAP TEAM :

Programming & Development : Alexandra Zaïnal
Concept & Development : Baudouin d'Aumeries
Co-Development & Prog : Marc-Olivier Méhu
Technical & hardware support : Manuel Goepfert

Contact : metmap@orbifly.com




SOURCES & CREDITS :

   NOAA